createdAt,value
2023-02-22T00:02:05.454Z,979.29
2023-02-22T00:14:05.889Z,979.26
2023-02-22T00:26:06.353Z,979.33
2023-02-22T00:38:06.786Z,979.43
2023-02-22T00:50:07.221Z,979.44
2023-02-22T01:02:07.698Z,979.37
2023-02-22T01:14:08.143Z,979.31
2023-02-22T01:26:08.607Z,979.28
2023-02-22T01:38:09.040Z,979.28
2023-02-22T01:50:09.477Z,979.19
2023-02-22T02:02:09.955Z,979.23
2023-02-22T02:14:10.430Z,979.19
2023-02-22T02:26:10.852Z,979.10
2023-02-22T02:38:11.277Z,979.06
2023-02-22T02:50:11.749Z,979.02
2023-02-22T03:02:12.214Z,978.99
2023-02-22T03:14:12.618Z,978.99
2023-02-22T03:26:13.070Z,979.02
2023-02-22T03:38:13.529Z,978.97
2023-02-22T03:50:14.021Z,979.07
2023-02-22T04:02:14.474Z,979.15
2023-02-22T04:14:14.907Z,979.16
2023-02-22T04:26:15.336Z,979.25
2023-02-22T04:38:15.873Z,979.22
2023-02-22T04:50:16.233Z,979.11
2023-02-22T05:02:16.743Z,979.19
2023-02-22T05:14:17.149Z,979.19
2023-02-22T05:26:17.643Z,979.17
2023-02-22T05:38:18.068Z,979.17
2023-02-22T05:50:18.481Z,979.24
2023-02-22T06:02:19.024Z,979.32
2023-02-22T06:14:19.461Z,979.33
2023-02-22T06:26:19.883Z,979.45
2023-02-22T06:38:20.344Z,979.49
2023-02-22T06:50:20.779Z,979.64
2023-02-22T07:02:21.239Z,979.70
2023-02-22T07:14:21.658Z,979.65
2023-02-22T07:26:22.145Z,979.58
2023-02-22T07:38:22.584Z,979.47
2023-02-22T07:50:23.129Z,979.45
2023-02-22T08:02:23.542Z,979.28
2023-02-22T08:14:23.949Z,979.27
2023-02-22T08:26:24.394Z,979.16
2023-02-22T08:38:24.857Z,979.11
2023-02-22T08:50:25.340Z,979.10
2023-02-22T09:02:25.813Z,979.06
2023-02-22T09:14:26.182Z,979.00
2023-02-22T09:26:26.707Z,978.87
2023-02-22T09:38:27.096Z,978.93
2023-02-22T09:50:27.554Z,978.69
2023-02-22T10:02:28.030Z,978.64
2023-02-22T10:14:28.475Z,978.52
2023-02-22T10:26:28.885Z,978.47
2023-02-22T10:38:29.394Z,978.41
2023-02-22T10:50:29.821Z,978.29
2023-02-22T11:02:30.263Z,978.12
2023-02-22T11:14:30.745Z,977.97
2023-02-22T11:26:31.188Z,977.79
2023-02-22T11:38:31.600Z,977.63
2023-02-22T11:50:32.075Z,977.61
2023-02-22T12:02:32.555Z,977.43
2023-02-22T12:14:33.019Z,977.24
2023-02-22T12:26:33.435Z,977.13
2023-02-22T12:38:33.988Z,976.92
2023-02-22T12:50:34.456Z,976.84
2023-02-22T13:02:34.856Z,976.68
2023-02-22T13:14:35.294Z,976.64
2023-02-22T13:26:35.757Z,976.58
2023-02-22T13:38:36.235Z,976.55
2023-02-22T13:50:36.641Z,976.46
2023-02-22T14:02:37.127Z,976.36
2023-02-22T14:14:37.594Z,976.17
2023-02-22T14:26:38.064Z,976.24
2023-02-22T14:38:38.439Z,976.14
2023-02-22T14:50:38.955Z,976.08
2023-02-22T15:02:39.451Z,975.99
2023-02-22T15:14:39.859Z,976.12
2023-02-22T15:26:49.020Z,976.16
2023-02-22T15:38:40.778Z,976.03
2023-02-22T15:50:41.240Z,975.97
2023-02-22T16:02:41.823Z,976.00
2023-02-22T16:14:42.119Z,976.10
2023-02-22T16:26:42.583Z,976.11
2023-02-22T16:38:43.045Z,976.15
2023-02-22T16:50:43.478Z,976.27
2023-02-22T17:02:43.917Z,976.40
2023-02-22T17:14:44.359Z,976.42
2023-02-22T17:26:44.849Z,976.51
2023-02-22T17:38:45.272Z,976.49
2023-02-22T17:50:45.745Z,976.45
2023-02-22T18:02:46.269Z,976.53
2023-02-22T18:14:46.664Z,976.47
2023-02-22T18:26:47.145Z,976.44
2023-02-22T18:38:47.548Z,976.39
2023-02-22T18:50:48.040Z,976.33
2023-02-22T19:02:48.528Z,976.31
2023-02-22T19:14:48.930Z,976.30
2023-02-22T19:26:49.332Z,976.25
2023-02-22T19:38:49.812Z,976.37
2023-02-22T19:50:50.298Z,976.53
2023-02-22T20:02:50.718Z,976.52
2023-02-22T20:14:51.238Z,976.50
2023-02-22T20:26:51.651Z,976.60
2023-02-22T20:38:52.129Z,976.56
2023-02-22T20:50:52.525Z,976.59
2023-02-22T21:02:52.998Z,976.64
2023-02-22T21:14:53.422Z,976.65
2023-02-22T21:26:53.926Z,976.58
2023-02-22T21:38:54.375Z,976.70
2023-02-22T21:50:54.832Z,976.59
2023-02-22T22:02:55.297Z,976.55
2023-02-22T22:14:55.686Z,976.36
2023-02-22T22:26:56.178Z,976.36
2023-02-22T22:38:56.623Z,976.36
2023-02-22T22:50:57.030Z,976.39
2023-02-22T23:02:57.636Z,976.37
2023-02-22T23:14:57.967Z,976.40
2023-02-22T23:26:58.423Z,976.40
2023-02-22T23:38:58.878Z,976.38
2023-02-22T23:50:59.394Z,976.33
